createdAt,value
2019-02-24T00:01:06.951Z,5.70
2019-02-24T00:03:35.708Z,5.63
2019-02-24T00:06:04.555Z,5.77
2019-02-24T00:08:33.277Z,5.43
2019-02-24T00:11:02.009Z,6.20
2019-02-24T00:13:30.746Z,4.93
2019-02-24T00:15:59.551Z,5.43
2019-02-24T00:18:28.309Z,5.63
2019-02-24T00:20:58.329Z,6.40
2019-02-24T00:23:27.169Z,5.73
2019-02-24T00:25:55.957Z,5.00
2019-02-24T00:28:24.731Z,6.17
2019-02-24T00:30:53.464Z,6.40
2019-02-24T00:33:22.195Z,5.87
2019-02-24T00:35:51.859Z,6.00
2019-02-24T00:38:20.873Z,5.77
2019-02-24T00:40:49.813Z,5.70
2019-02-24T00:43:18.681Z,5.20
2019-02-24T00:45:47.547Z,6.47
2019-02-24T00:48:16.364Z,5.73
2019-02-24T00:50:45.084Z,6.27
2019-02-24T00:53:13.864Z,6.33
2019-02-24T00:55:42.651Z,5.80
2019-02-24T00:58:16.113Z,5.87
2019-02-24T01:00:41.860Z,6.10
2019-02-24T01:03:10.570Z,5.97
2019-02-24T01:05:39.383Z,6.47
2019-02-24T01:08:08.194Z,6.63
2019-02-24T01:10:36.921Z,6.07
2019-02-24T01:13:05.750Z,6.43
2019-02-24T01:15:34.479Z,5.30
2019-02-24T01:18:03.294Z,5.93
2019-02-24T01:20:32.031Z,6.33
2019-02-24T01:23:00.861Z,5.80
2019-02-24T01:25:29.679Z,6.73
2019-02-24T01:27:58.472Z,6.07
2019-02-24T01:30:27.291Z,6.17
2019-02-24T01:32:56.075Z,6.77
2019-02-24T01:35:24.852Z,6.03
2019-02-24T01:37:53.600Z,5.27
2019-02-24T01:40:24.833Z,6.63
2019-02-24T01:42:53.615Z,6.40
2019-02-24T01:45:22.418Z,6.57
2019-02-24T01:47:51.173Z,5.70
2019-02-24T01:50:19.974Z,6.23
2019-02-24T01:52:48.700Z,6.50
2019-02-24T01:55:17.442Z,5.70
2019-02-24T01:57:46.162Z,6.33
2019-02-24T02:00:15.006Z,5.73
2019-02-24T02:02:43.840Z,6.70
2019-02-24T02:05:12.618Z,6.57
2019-02-24T02:07:41.370Z,6.33
2019-02-24T02:10:10.076Z,5.93
2019-02-24T02:12:38.787Z,6.73
2019-02-24T02:15:07.550Z,5.53
2019-02-24T02:17:36.312Z,6.70
2019-02-24T02:20:05.451Z,5.80
2019-02-24T02:22:34.254Z,6.13
2019-02-24T02:25:03.078Z,6.17
2019-02-24T02:27:31.861Z,5.70
2019-02-24T02:30:00.632Z,6.00
2019-02-24T02:32:29.432Z,5.97
2019-02-24T02:34:58.146Z,6.10
2019-02-24T02:37:26.887Z,5.70
2019-02-24T02:39:55.660Z,6.63
2019-02-24T02:42:24.420Z,6.33
2019-02-24T02:44:53.142Z,5.97
2019-02-24T02:47:21.943Z,6.00
2019-02-24T02:49:50.650Z,5.27
2019-02-24T02:52:19.380Z,6.13
2019-02-24T02:54:48.091Z,6.43
2019-02-24T02:57:16.930Z,5.13
2019-02-24T02:59:45.734Z,6.20
2019-02-24T03:02:23.780Z,5.90
2019-02-24T03:04:44.972Z,6.00
2019-02-24T03:07:30.583Z,5.90
2019-02-24T03:09:59.627Z,6.13
2019-02-24T03:12:28.415Z,6.17
2019-02-24T03:14:57.227Z,5.97
2019-02-24T03:17:26.160Z,5.33
2019-02-24T03:19:54.949Z,5.97
2019-02-24T03:22:23.744Z,5.70
2019-02-24T03:24:52.448Z,5.57
2019-02-24T03:27:21.317Z,5.77
2019-02-24T03:29:50.128Z,6.70
2019-02-24T03:32:18.858Z,6.83
2019-02-24T03:34:50.035Z,6.67
2019-02-24T03:37:18.852Z,5.97
2019-02-24T03:39:47.619Z,6.20
2019-02-24T03:42:16.425Z,7.53
2019-02-24T03:44:45.266Z,6.93
2019-02-24T03:47:14.104Z,6.30
2019-02-24T03:49:42.900Z,7.30
2019-02-24T03:52:11.634Z,7.10
2019-02-24T03:54:59.424Z,7.33
2019-02-24T03:57:28.176Z,6.13
2019-02-24T03:59:59.755Z,6.57
2019-02-24T04:02:28.535Z,6.07
2019-02-24T04:04:57.346Z,7.27
2019-02-24T04:07:26.080Z,6.63
2019-02-24T04:09:54.873Z,6.50
2019-02-24T04:12:23.682Z,6.20
2019-02-24T04:14:52.403Z,5.97
2019-02-24T04:17:23.427Z,6.87
2019-02-24T04:19:52.227Z,7.53
2019-02-24T04:22:21.021Z,7.80
2019-02-24T04:24:49.803Z,6.63
2019-02-24T04:27:18.587Z,6.77
2019-02-24T04:29:47.384Z,7.00
2019-02-24T04:32:16.087Z,6.57
2019-02-24T04:34:44.892Z,6.87
2019-02-24T04:37:13.984Z,6.97
2019-02-24T04:39:42.738Z,7.60
2019-02-24T04:42:11.510Z,6.67
2019-02-24T04:44:40.307Z,6.97
2019-02-24T04:47:09.101Z,6.67
2019-02-24T04:49:37.845Z,6.70
2019-02-24T04:52:06.632Z,7.43
2019-02-24T04:54:35.428Z,7.27
2019-02-24T04:57:04.157Z,7.13
2019-02-24T04:59:35.285Z,7.33
2019-02-24T05:02:03.448Z,7.67
2019-02-24T05:04:32.293Z,7.00
2019-02-24T05:07:01.013Z,6.33
2019-02-24T05:09:29.819Z,6.43
2019-02-24T05:11:58.540Z,7.90
2019-02-24T05:14:27.349Z,6.83
2019-02-24T05:16:56.132Z,6.80
2019-02-24T05:19:24.945Z,7.60
2019-02-24T05:21:53.731Z,6.30
2019-02-24T05:24:22.482Z,7.10
2019-02-24T05:26:51.268Z,7.10
2019-02-24T05:29:20.504Z,7.23
2019-02-24T05:31:49.312Z,7.47
2019-02-24T05:34:18.132Z,7.77
2019-02-24T05:36:46.857Z,7.03
2019-02-24T05:39:15.621Z,7.27
2019-02-24T05:41:44.396Z,7.07
2019-02-24T05:44:13.195Z,6.47
2019-02-24T05:46:41.913Z,7.33
2019-02-24T05:49:10.752Z,6.87
2019-02-24T05:51:39.527Z,8.20
2019-02-24T05:54:08.260Z,6.77
2019-02-24T05:56:37.072Z,7.50
2019-02-24T05:59:05.805Z,7.50
2019-02-24T06:01:34.576Z,6.77
2019-02-24T06:04:03.329Z,7.67
2019-02-24T06:06:32.082Z,6.27
2019-02-24T06:09:00.804Z,6.60
2019-02-24T06:11:29.606Z,7.13
2019-02-24T06:13:58.365Z,7.40
2019-02-24T06:16:27.083Z,7.53
2019-02-24T06:18:55.891Z,7.23
2019-02-24T06:21:24.653Z,7.33
2019-02-24T06:23:53.412Z,7.37
2019-02-24T06:26:22.236Z,7.47
2019-02-24T06:28:51.009Z,7.60
2019-02-24T06:31:19.756Z,7.80
2019-02-24T06:33:48.571Z,8.20
2019-02-24T06:36:17.341Z,7.50
2019-02-24T06:38:46.053Z,7.40
2019-02-24T06:41:14.856Z,7.63
2019-02-24T06:43:43.598Z,7.07
2019-02-24T06:46:12.442Z,8.67
2019-02-24T06:48:41.359Z,7.20
2019-02-24T06:51:11.415Z,7.77
2019-02-24T06:53:40.415Z,8.33
2019-02-24T06:56:09.214Z,8.63
2019-02-24T06:58:37.994Z,7.83
2019-02-24T07:01:06.786Z,7.53
2019-02-24T07:03:35.613Z,8.50
2019-02-24T07:06:04.432Z,6.93
2019-02-24T07:08:33.199Z,7.80
2019-02-24T07:11:01.999Z,7.73
2019-02-24T07:13:30.821Z,8.30
2019-02-24T07:15:59.616Z,8.27
2019-02-24T07:18:28.429Z,8.10
2019-02-24T07:20:57.250Z,7.77
2019-02-24T07:23:26.057Z,7.80
2019-02-24T07:25:54.925Z,8.13
2019-02-24T07:28:23.628Z,8.23
2019-02-24T07:30:52.469Z,8.27
2019-02-24T07:33:21.169Z,7.97
2019-02-24T07:35:49.960Z,7.93
2019-02-24T07:38:18.777Z,8.47
2019-02-24T07:40:50.623Z,8.33
2019-02-24T07:43:19.397Z,7.97
2019-02-24T07:45:48.163Z,8.97
2019-02-24T07:48:16.994Z,9.00
2019-02-24T07:50:45.748Z,9.30
2019-02-24T07:53:14.487Z,9.77
2019-02-24T07:55:43.228Z,8.93
2019-02-24T07:58:12.013Z,9.03
2019-02-24T08:00:40.968Z,9.33
2019-02-24T08:03:09.703Z,9.10
2019-02-24T08:05:38.530Z,10.57
2019-02-24T08:08:16.069Z,9.67
2019-02-24T08:10:37.819Z,9.37
2019-02-24T08:13:06.627Z,8.70
2019-02-24T08:15:35.442Z,9.07
2019-02-24T08:18:04.167Z,9.63
2019-02-24T08:20:33.507Z,9.37
2019-02-24T08:23:02.340Z,8.77
2019-02-24T08:25:31.089Z,9.83
2019-02-24T08:27:59.981Z,9.63
2019-02-24T08:30:40.979Z,9.53
2019-02-24T08:33:04.810Z,10.30
2019-02-24T08:35:33.804Z,9.73
2019-02-24T08:38:04.984Z,9.73
2019-02-24T08:40:33.906Z,9.67
2019-02-24T08:43:02.703Z,9.53
2019-02-24T08:45:31.438Z,9.83
2019-02-24T08:48:00.217Z,9.47
2019-02-24T08:50:28.959Z,10.17
2019-02-24T08:52:57.795Z,9.37
2019-02-24T08:55:26.608Z,10.27
2019-02-24T08:57:58.192Z,9.23
2019-02-24T09:00:26.989Z,8.97
2019-02-24T09:02:55.754Z,9.97
2019-02-24T09:05:24.480Z,9.77
2019-02-24T09:07:53.258Z,9.97
2019-02-24T09:10:22.031Z,9.20
2019-02-24T09:12:50.836Z,10.47
2019-02-24T09:15:19.566Z,10.40
2019-02-24T09:17:51.623Z,9.97
2019-02-24T09:20:20.144Z,9.33
2019-02-24T09:22:50.450Z,9.30
2019-02-24T09:25:19.283Z,9.53
2019-02-24T09:27:50.387Z,9.30
2019-02-24T09:30:19.239Z,9.80
2019-02-24T09:32:48.180Z,9.67
2019-02-24T09:35:17.062Z,10.23
2019-02-24T09:37:45.857Z,8.70
2019-02-24T09:40:14.820Z,10.03
2019-02-24T09:42:46.301Z,9.43
2019-02-24T09:45:15.468Z,9.00
2019-02-24T09:47:47.022Z,8.67
2019-02-24T09:50:14.789Z,9.17
2019-02-24T09:52:43.581Z,8.87
2019-02-24T09:55:12.487Z,10.60
2019-02-24T09:57:41.306Z,10.13
2019-02-24T10:00:10.335Z,9.90
2019-02-24T10:02:39.291Z,9.40
2019-02-24T10:05:08.115Z,10.70
2019-02-24T10:07:36.911Z,10.00
2019-02-24T10:10:14.057Z,9.70
2019-02-24T10:12:44.173Z,9.77
2019-02-24T10:15:13.086Z,10.07
2019-02-24T10:17:41.907Z,9.70
2019-02-24T10:20:11.065Z,10.40
2019-02-24T10:22:39.796Z,9.77
2019-02-24T10:25:08.711Z,9.83
2019-02-24T10:27:37.568Z,10.17
2019-02-24T10:30:06.617Z,9.90
2019-02-24T10:32:35.608Z,9.20
2019-02-24T10:35:06.466Z,9.63
2019-02-24T10:37:35.285Z,9.40
2019-02-24T10:40:04.955Z,9.83
2019-02-24T10:42:33.837Z,10.20
2019-02-24T10:45:02.641Z,9.70
2019-02-24T10:47:31.444Z,9.83
2019-02-24T10:50:00.339Z,8.97
2019-02-24T10:52:30.677Z,10.00
2019-02-24T10:54:59.628Z,9.00
2019-02-24T10:57:28.448Z,9.17
2019-02-24T10:59:57.270Z,10.00
2019-02-24T11:02:26.048Z,9.80
2019-02-24T11:04:54.863Z,9.73
2019-02-24T11:07:23.723Z,10.33
2019-02-24T11:09:52.492Z,9.43
2019-02-24T11:12:21.340Z,9.70
2019-02-24T11:14:50.092Z,9.37
2019-02-24T11:17:18.819Z,9.63
2019-02-24T11:19:47.574Z,9.77
2019-02-24T11:22:16.329Z,9.10
2019-02-24T11:24:45.152Z,10.00
2019-02-24T11:27:14.006Z,8.73
2019-02-24T11:29:42.824Z,9.23
2019-02-24T11:32:11.619Z,9.80
2019-02-24T11:34:40.364Z,8.57
2019-02-24T11:37:09.121Z,8.97
2019-02-24T11:39:37.927Z,9.63
2019-02-24T11:42:06.675Z,9.40
2019-02-24T11:44:35.458Z,9.07
2019-02-24T11:47:04.259Z,9.33
2019-02-24T11:49:33.120Z,9.40
2019-02-24T11:52:04.089Z,8.07
2019-02-24T11:54:32.388Z,9.17
2019-02-24T11:57:01.148Z,9.17
2019-02-24T11:59:29.912Z,9.87
2019-02-24T12:01:58.676Z,9.20
2019-02-24T12:04:27.489Z,9.30
2019-02-24T12:06:56.270Z,9.47
2019-02-24T12:09:25.145Z,9.97
2019-02-24T12:11:53.996Z,8.80
2019-02-24T12:14:22.847Z,10.53
2019-02-24T12:16:51.712Z,9.10
2019-02-24T12:19:20.615Z,8.43
2019-02-24T12:21:49.465Z,9.07
2019-02-24T12:24:19.304Z,8.43
2019-02-24T12:26:48.078Z,8.27
2019-02-24T12:29:16.975Z,8.17
2019-02-24T12:31:45.779Z,8.27
2019-02-24T12:34:14.488Z,9.43
2019-02-24T12:36:43.832Z,8.83
2019-02-24T12:39:12.784Z,8.63
2019-02-24T12:41:43.434Z,9.20
2019-02-24T12:44:14.913Z,8.73
2019-02-24T12:46:44.209Z,8.17
2019-02-24T12:49:13.190Z,9.17
2019-02-24T12:51:42.376Z,9.07
2019-02-24T12:54:11.346Z,8.87
2019-02-24T12:56:41.362Z,8.67
2019-02-24T12:59:11.929Z,8.60
2019-02-24T13:01:41.193Z,9.23
2019-02-24T13:04:10.231Z,9.30
2019-02-24T13:06:39.133Z,8.40
2019-02-24T13:09:09.226Z,8.60
2019-02-24T13:11:38.272Z,9.00
2019-02-24T13:14:07.230Z,9.13
2019-02-24T13:16:36.209Z,10.03
2019-02-24T13:19:07.517Z,8.87
2019-02-24T13:21:36.564Z,8.60
2019-02-24T13:24:05.575Z,8.80
2019-02-24T13:26:34.550Z,9.50
2019-02-24T13:29:03.323Z,9.33
2019-02-24T13:31:32.133Z,8.87
2019-02-24T13:34:00.962Z,7.73
2019-02-24T13:36:29.713Z,8.57
2019-02-24T13:38:58.452Z,7.77
2019-02-24T13:41:27.260Z,7.37
2019-02-24T13:43:56.123Z,8.10
2019-02-24T13:46:24.873Z,8.43
2019-02-24T13:48:53.596Z,7.93
2019-02-24T13:51:22.337Z,8.10
2019-02-24T13:53:51.115Z,8.00
2019-02-24T13:56:31.327Z,7.37
2019-02-24T13:59:00.043Z,7.67
2019-02-24T14:01:28.871Z,8.03
2019-02-24T14:03:57.649Z,7.70
2019-02-24T14:06:26.415Z,8.13
2019-02-24T14:08:55.218Z,7.57
2019-02-24T14:11:24.045Z,7.07
2019-02-24T14:13:52.812Z,6.73
2019-02-24T14:16:24.589Z,7.43
2019-02-24T14:18:56.448Z,7.30
2019-02-24T14:21:25.230Z,6.93
2019-02-24T14:23:54.127Z,7.50
2019-02-24T14:26:22.912Z,8.17
2019-02-24T14:28:51.705Z,8.17
2019-02-24T14:31:20.435Z,8.00
2019-02-24T14:33:49.162Z,7.77
2019-02-24T14:36:17.887Z,7.60
2019-02-24T14:38:46.811Z,7.30
2019-02-24T14:41:15.598Z,7.27
2019-02-24T14:43:44.351Z,7.40
2019-02-24T14:46:13.209Z,7.70
2019-02-24T14:48:41.943Z,7.17
2019-02-24T14:51:10.742Z,7.30
2019-02-24T14:53:39.578Z,7.97
2019-02-24T14:56:08.409Z,7.60
2019-02-24T14:58:37.338Z,7.13
2019-02-24T15:01:06.137Z,7.73
2019-02-24T15:03:34.930Z,8.17
2019-02-24T15:06:03.716Z,7.93
2019-02-24T15:08:32.463Z,7.43
2019-02-24T15:11:01.319Z,8.20
2019-02-24T15:13:30.132Z,6.93
2019-02-24T15:15:58.923Z,6.97
2019-02-24T15:18:27.698Z,7.10
2019-02-24T15:20:56.629Z,7.50
2019-02-24T15:23:26.556Z,7.53
2019-02-24T15:25:55.491Z,7.40
2019-02-24T15:28:24.273Z,6.90
2019-02-24T15:30:53.763Z,6.97
2019-02-24T15:33:22.694Z,7.87
2019-02-24T15:35:51.516Z,7.20
2019-02-24T15:38:21.587Z,6.60
2019-02-24T15:40:51.226Z,7.47
2019-02-24T15:43:20.847Z,7.43
2019-02-24T15:45:52.452Z,7.67
2019-02-24T15:48:21.972Z,6.60
2019-02-24T15:50:50.883Z,6.67
2019-02-24T15:53:19.831Z,7.20
2019-02-24T15:55:48.645Z,7.47
2019-02-24T15:58:17.978Z,6.97
2019-02-24T16:00:47.062Z,7.93
2019-02-24T16:03:16.082Z,8.17
2019-02-24T16:05:48.294Z,7.87
2019-02-24T16:08:15.700Z,9.87
2019-02-24T16:10:44.807Z,9.00
2019-02-24T16:13:17.020Z,8.80
2019-02-24T16:15:44.351Z,8.90
2019-02-24T16:18:13.642Z,7.90
2019-02-24T16:20:42.836Z,7.40
2019-02-24T16:23:11.645Z,7.40
2019-02-24T16:25:40.783Z,7.57
2019-02-24T16:28:09.951Z,7.53
2019-02-24T16:30:39.152Z,8.30
2019-02-24T16:33:10.678Z,11.40
2019-02-24T16:35:38.761Z,14.30
2019-02-24T16:38:07.710Z,14.10
2019-02-24T16:40:37.065Z,8.87
2019-02-24T16:43:06.503Z,7.63
2019-02-24T16:45:35.877Z,7.70
2019-02-24T16:48:05.232Z,10.07
2019-02-24T16:50:34.270Z,15.50
2019-02-24T16:53:03.776Z,15.27
2019-02-24T16:55:33.104Z,16.40
2019-02-24T16:58:02.347Z,52.00
2019-02-24T17:00:31.409Z,45.83
2019-02-24T17:03:00.746Z,28.73
2019-02-24T17:05:29.936Z,28.80
2019-02-24T17:07:59.147Z,31.60
2019-02-24T17:10:28.343Z,27.43
2019-02-24T17:12:57.717Z,24.03
2019-02-24T17:15:26.830Z,23.03
2019-02-24T17:17:56.034Z,29.43
2019-02-24T17:20:25.282Z,20.03
2019-02-24T17:22:54.652Z,19.77
2019-02-24T17:25:23.636Z,13.97
2019-02-24T17:27:52.520Z,14.27
2019-02-24T17:30:28.936Z,14.03
2019-02-24T17:32:59.501Z,24.33
2019-02-24T17:35:28.429Z,24.63
2019-02-24T17:37:57.397Z,18.17
2019-02-24T17:40:26.297Z,16.37
2019-02-24T17:42:55.507Z,14.47
2019-02-24T17:45:24.334Z,14.57
2019-02-24T17:47:54.579Z,12.10
2019-02-24T17:50:23.738Z,11.83
2019-02-24T17:52:52.688Z,74.93
2019-02-24T17:55:21.760Z,50.17
2019-02-24T17:57:50.974Z,26.03
2019-02-24T18:00:23.883Z,17.30
2019-02-24T18:02:52.789Z,16.10
2019-02-24T18:05:21.690Z,13.27
2019-02-24T18:07:51.314Z,12.40
2019-02-24T18:10:20.151Z,10.07
2019-02-24T18:12:49.138Z,9.87
2019-02-24T18:15:18.047Z,9.97
2019-02-24T18:17:47.005Z,10.70
2019-02-24T18:20:15.946Z,9.20
2019-02-24T18:22:44.873Z,10.37
2019-02-24T18:25:13.742Z,9.77
2019-02-24T18:27:42.796Z,9.77
2019-02-24T18:30:19.103Z,9.40
2019-02-24T18:32:48.053Z,9.87
2019-02-24T18:35:16.959Z,9.67
2019-02-24T18:37:45.864Z,9.67
2019-02-24T18:40:14.796Z,10.53
2019-02-24T18:42:43.851Z,10.47
2019-02-24T18:45:12.726Z,9.70
2019-02-24T18:47:42.164Z,9.57
2019-02-24T18:50:11.327Z,9.80
2019-02-24T18:52:40.344Z,11.40
2019-02-24T18:55:09.475Z,11.40
2019-02-24T18:57:38.507Z,10.40
2019-02-24T19:00:08.047Z,10.57
2019-02-24T19:02:38.946Z,10.90
2019-02-24T19:05:08.345Z,11.67
2019-02-24T19:07:40.388Z,13.23
2019-02-24T19:10:11.485Z,14.70
2019-02-24T19:12:40.536Z,13.23
2019-02-24T19:15:10.531Z,11.93
2019-02-24T19:17:39.734Z,13.60
2019-02-24T19:20:09.502Z,13.07
2019-02-24T19:22:38.559Z,12.17
2019-02-24T19:25:08.239Z,13.13
2019-02-24T19:27:37.492Z,14.23
2019-02-24T19:30:08.359Z,15.87
2019-02-24T19:32:37.918Z,14.73
2019-02-24T19:35:09.970Z,15.13
2019-02-24T19:37:39.186Z,16.03
2019-02-24T19:40:09.444Z,16.47
2019-02-24T19:42:38.616Z,16.97
2019-02-24T19:45:09.016Z,14.57
2019-02-24T19:47:39.833Z,15.50
2019-02-24T19:50:10.703Z,14.33
2019-02-24T19:52:39.833Z,15.53
2019-02-24T19:55:09.643Z,17.20
2019-02-24T19:57:42.293Z,17.90
2019-02-24T20:00:14.063Z,14.80
2019-02-24T20:02:43.160Z,16.53
2019-02-24T20:05:13.170Z,14.77
2019-02-24T20:07:42.285Z,16.63
2019-02-24T20:10:15.400Z,15.03
2019-02-24T20:12:44.872Z,13.33
2019-02-24T20:15:14.536Z,13.87
2019-02-24T20:17:44.544Z,14.60
2019-02-24T20:20:15.353Z,15.43
2019-02-24T20:22:44.352Z,15.37
2019-02-24T20:25:13.562Z,14.33
2019-02-24T20:27:42.926Z,15.17
2019-02-24T20:30:13.694Z,15.80
2019-02-24T20:32:42.666Z,14.87
2019-02-24T20:35:16.799Z,13.53
2019-02-24T20:37:45.903Z,14.63
2019-02-24T20:40:15.004Z,13.43
2019-02-24T20:42:43.970Z,13.23
2019-02-24T20:45:13.962Z,12.97
2019-02-24T20:47:44.731Z,12.20
2019-02-24T20:50:29.405Z,13.67
2019-02-24T20:52:58.546Z,14.83
2019-02-24T20:55:27.596Z,13.97
2019-02-24T20:57:56.566Z,14.73
2019-02-24T21:00:27.266Z,13.23
2019-02-24T21:02:56.944Z,15.23
2019-02-24T21:05:26.323Z,13.67
2019-02-24T21:07:55.729Z,16.00
2019-02-24T21:10:24.695Z,14.03
2019-02-24T21:12:53.639Z,14.57
2019-02-24T21:15:22.940Z,14.97
2019-02-24T21:17:52.380Z,13.03
2019-02-24T21:20:22.244Z,13.80
2019-02-24T21:22:51.273Z,14.23
2019-02-24T21:25:20.717Z,13.30
2019-02-24T21:27:50.197Z,14.20
2019-02-24T21:30:19.450Z,13.47
2019-02-24T21:32:48.576Z,14.20
2019-02-24T21:35:17.785Z,13.27
2019-02-24T21:37:46.693Z,15.87
2019-02-24T21:40:15.546Z,14.83
2019-02-24T21:42:44.763Z,14.23
2019-02-24T21:45:14.900Z,13.93
2019-02-24T21:47:44.067Z,12.80
2019-02-24T21:50:13.595Z,13.43
2019-02-24T21:52:42.457Z,13.90
2019-02-24T21:55:11.353Z,12.33
2019-02-24T21:57:40.547Z,12.23
2019-02-24T22:00:13.634Z,12.90
2019-02-24T22:02:44.205Z,13.23
2019-02-24T22:05:16.026Z,13.97
2019-02-24T22:07:45.195Z,11.77
2019-02-24T22:10:14.231Z,12.30
2019-02-24T22:12:43.072Z,12.50
2019-02-24T22:15:13.110Z,13.27
2019-02-24T22:17:42.000Z,12.20
2019-02-24T22:20:10.836Z,11.47
2019-02-24T22:22:39.744Z,12.40
2019-02-24T22:25:09.110Z,11.30
2019-02-24T22:27:37.940Z,12.73
2019-02-24T22:30:07.403Z,13.27
2019-02-24T22:32:36.227Z,12.43
2019-02-24T22:35:07.111Z,11.97
2019-02-24T22:37:35.936Z,11.70
2019-02-24T22:40:06.327Z,12.47
2019-02-24T22:42:35.132Z,12.50
2019-02-24T22:45:04.225Z,11.23
2019-02-24T22:47:33.072Z,10.70
2019-02-24T22:50:01.969Z,12.03
2019-02-24T22:52:30.739Z,11.27
2019-02-24T22:54:59.443Z,9.87
2019-02-24T22:57:28.294Z,10.27
2019-02-24T22:59:57.116Z,11.27
2019-02-24T23:02:25.846Z,8.60
2019-02-24T23:04:54.661Z,9.93
2019-02-24T23:07:23.450Z,10.73
2019-02-24T23:09:52.236Z,10.70
2019-02-24T23:12:20.980Z,11.10
2019-02-24T23:14:49.835Z,10.43
2019-02-24T23:17:18.579Z,11.40
2019-02-24T23:19:47.416Z,10.50
2019-02-24T23:22:16.202Z,10.60
2019-02-24T23:24:44.932Z,11.27
2019-02-24T23:27:16.229Z,11.83
2019-02-24T23:29:45.004Z,9.77
2019-02-24T23:32:13.736Z,11.37
2019-02-24T23:34:42.500Z,11.57
2019-02-24T23:37:11.336Z,11.20
2019-02-24T23:39:40.061Z,11.77
2019-02-24T23:42:08.809Z,11.53
2019-02-24T23:44:37.560Z,10.83
2019-02-24T23:47:06.300Z,10.67
2019-02-24T23:49:35.916Z,10.57
2019-02-24T23:52:04.764Z,11.57
2019-02-24T23:54:33.490Z,11.13
2019-02-24T23:57:02.222Z,12.53
2019-02-24T23:59:30.982Z,11.70
